Forest City, Pennsylvania
Current Conditions -  °F | °C
As of 8:54 PM on Saturday 25 Oct 2014 (Local Time) from KAVP Reporting Station
Overcast Overcast  
Wind Chill: 63°   Ceiling: 10000
Heat Index: 63°   Visibility: 10mi
Dew Point: 46°   Wind: 9mph
Humidity: 54%   Direction: 240°WSW
Pressure: 29.61"   Gusts: NA
Location:  41.65°N, 75.47°W
Report Text: KAVP 260054Z 24008KT 10SM OVC100 17/08 A2961 RMK AO2 SLP024 T01720078
Loading
Personal Weather Stations






























Interactive Weather Map
Tropical Storm Tracking
New forecast layout! Learn more

10-Day Weather Forecast

Advertisements
Track Severe Weather on mobile